sensor_id;sensor_type;location;lat;lon;timestamp;P1;durP1;ratioP1;P2;durP2;ratioP2
55067;SDS011;40965;52.368;9.712;2022-10-24T00:00:04;3.13;;;2.38;;
55067;SDS011;40965;52.368;9.712;2022-10-24T00:02:53;2.65;;;1.70;;
55067;SDS011;40965;52.368;9.712;2022-10-24T00:05:40;2.45;;;1.52;;
55067;SDS011;40965;52.368;9.712;2022-10-24T00:08:33;3.78;;;1.98;;
55067;SDS011;40965;52.368;9.712;2022-10-24T00:11:22;5.53;;;2.05;;
55067;SDS011;40965;52.368;9.712;2022-10-24T00:14:13;4.55;;;1.65;;
55067;SDS011;40965;52.368;9.712;2022-10-24T00:17:00;3.05;;;1.40;;
55067;SDS011;40965;52.368;9.712;2022-10-24T00:19:47;2.22;;;1.60;;
55067;SDS011;40965;52.368;9.712;2022-10-24T00:22:34;4.25;;;2.25;;
55067;SDS011;40965;52.368;9.712;2022-10-24T00:25:20;2.20;;;1.88;;
55067;SDS011;40965;52.368;9.712;2022-10-24T00:28:07;3.42;;;2.30;;
55067;SDS011;40965;52.368;9.712;2022-10-24T00:30:54;5.70;;;2.10;;
55067;SDS011;40965;52.368;9.712;2022-10-24T00:33:41;3.80;;;1.52;;
55067;SDS011;40965;52.368;9.712;2022-10-24T00:36:29;4.82;;;1.70;;
55067;SDS011;40965;52.368;9.712;2022-10-24T00:39:17;2.53;;;1.73;;
55067;SDS011;40965;52.368;9.712;2022-10-24T00:42:03;2.78;;;1.10;;
55067;SDS011;40965;52.368;9.712;2022-10-24T00:44:51;6.88;;;1.75;;
55067;SDS011;40965;52.368;9.712;2022-10-24T00:47:38;2.40;;;1.38;;
55067;SDS011;40965;52.368;9.712;2022-10-24T00:50:28;3.63;;;1.95;;
55067;SDS011;40965;52.368;9.712;2022-10-24T00:53:14;3.13;;;1.73;;
55067;SDS011;40965;52.368;9.712;2022-10-24T00:56:02;6.05;;;2.10;;
55067;SDS011;40965;52.368;9.712;2022-10-24T00:58:51;4.88;;;2.03;;
55067;SDS011;40965;52.368;9.712;2022-10-24T01:01:40;2.72;;;1.73;;
55067;SDS011;40965;52.368;9.712;2022-10-24T01:04:29;2.65;;;1.70;;
55067;SDS011;40965;52.368;9.712;2022-10-24T01:13:55;8.70;;;2.10;;
55067;SDS011;40965;52.368;9.712;2022-10-24T01:26:58;4.72;;;2.45;;
55067;SDS011;40965;52.368;9.712;2022-10-24T01:33:02;6.07;;;2.13;;
55067;SDS011;40965;52.368;9.712;2022-10-24T01:38:56;4.75;;;2.22;;
55067;SDS011;40965;52.368;9.712;2022-10-24T01:41:45;4.57;;;2.25;;
55067;SDS011;40965;52.368;9.712;2022-10-24T01:44:37;3.58;;;2.38;;
55067;SDS011;40965;52.368;9.712;2022-10-24T01:47:29;2.97;;;2.47;;
55067;SDS011;40965;52.368;9.712;2022-10-24T01:50:27;7.05;;;2.47;;
55067;SDS011;40965;52.368;9.712;2022-10-24T01:53:15;5.93;;;2.70;;
55067;SDS011;40965;52.368;9.712;2022-10-24T01:56:02;2.95;;;1.90;;
55067;SDS011;40965;52.368;9.712;2022-10-24T01:58:49;7.47;;;2.78;;
55067;SDS011;40965;52.368;9.712;2022-10-24T02:01:36;9.52;;;3.25;;
55067;SDS011;40965;52.368;9.712;2022-10-24T02:04:24;4.88;;;2.53;;
55067;SDS011;40965;52.368;9.712;2022-10-24T02:07:16;4.38;;;2.42;;
55067;SDS011;40965;52.368;9.712;2022-10-24T02:10:27;5.30;;;2.47;;
55067;SDS011;40965;52.368;9.712;2022-10-24T02:13:18;3.75;;;2.33;;
55067;SDS011;40965;52.368;9.712;2022-10-24T02:16:14;5.57;;;2.42;;
55067;SDS011;40965;52.368;9.712;2022-10-24T02:19:04;6.28;;;2.42;;
55067;SDS011;40965;52.368;9.712;2022-10-24T02:21:54;7.45;;;2.75;;
55067;SDS011;40965;52.368;9.712;2022-10-24T02:24:56;7.38;;;2.67;;
55067;SDS011;40965;52.368;9.712;2022-10-24T02:27:51;5.50;;;2.65;;
55067;SDS011;40965;52.368;9.712;2022-10-24T02:30:55;2.38;;;2.17;;
55067;SDS011;40965;52.368;9.712;2022-10-24T02:33:48;4.03;;;2.50;;
55067;SDS011;40965;52.368;9.712;2022-10-24T02:36:36;4.75;;;2.53;;
55067;SDS011;40965;52.368;9.712;2022-10-24T02:39:26;3.25;;;2.95;;
55067;SDS011;40965;52.368;9.712;2022-10-24T02:42:15;2.05;;;1.80;;
55067;SDS011;40965;52.368;9.712;2022-10-24T02:45:03;3.75;;;2.15;;
55067;SDS011;40965;52.368;9.712;2022-10-24T02:47:53;2.65;;;2.42;;
55067;SDS011;40965;52.368;9.712;2022-10-24T02:50:46;2.30;;;2.10;;
55067;SDS011;40965;52.368;9.712;2022-10-24T02:53:35;8.05;;;2.67;;
55067;SDS011;40965;52.368;9.712;2022-10-24T02:56:22;11.25;;;2.78;;
55067;SDS011;40965;52.368;9.712;2022-10-24T02:59:09;4.35;;;2.30;;
55067;SDS011;40965;52.368;9.712;2022-10-24T03:01:56;4.35;;;2.30;;
55067;SDS011;40965;52.368;9.712;2022-10-24T03:04:43;4.25;;;2.22;;
55067;SDS011;40965;52.368;9.712;2022-10-24T03:07:30;6.70;;;3.08;;
55067;SDS011;40965;52.368;9.712;2022-10-24T03:10:17;2.92;;;2.00;;
55067;SDS011;40965;52.368;9.712;2022-10-24T03:13:05;4.30;;;2.45;;
55067;SDS011;40965;52.368;9.712;2022-10-24T03:15:55;3.20;;;2.45;;
55067;SDS011;40965;52.368;9.712;2022-10-24T03:18:42;6.85;;;3.28;;
55067;SDS011;40965;52.368;9.712;2022-10-24T03:21:29;3.92;;;1.85;;
55067;SDS011;40965;52.368;9.712;2022-10-24T03:24:16;3.60;;;1.92;;
55067;SDS011;40965;52.368;9.712;2022-10-24T03:27:03;3.45;;;2.20;;
55067;SDS011;40965;52.368;9.712;2022-10-24T03:29:50;5.38;;;2.05;;
55067;SDS011;40965;52.368;9.712;2022-10-24T03:32:36;7.80;;;2.45;;
55067;SDS011;40965;52.368;9.712;2022-10-24T03:35:23;4.03;;;2.72;;
55067;SDS011;40965;52.368;9.712;2022-10-24T03:38:10;3.47;;;2.38;;
55067;SDS011;40965;52.368;9.712;2022-10-24T03:40:57;3.45;;;1.95;;
55067;SDS011;40965;52.368;9.712;2022-10-24T03:43:44;3.03;;;2.10;;
55067;SDS011;40965;52.368;9.712;2022-10-24T03:46:30;5.32;;;2.13;;
55067;SDS011;40965;52.368;9.712;2022-10-24T03:49:17;8.68;;;2.90;;
55067;SDS011;40965;52.368;9.712;2022-10-24T03:52:04;9.25;;;2.83;;
55067;SDS011;40965;52.368;9.712;2022-10-24T03:54:51;3.50;;;2.15;;
55067;SDS011;40965;52.368;9.712;2022-10-24T03:57:38;5.35;;;2.22;;
55067;SDS011;40965;52.368;9.712;2022-10-24T04:00:25;6.47;;;3.20;;
55067;SDS011;40965;52.368;9.712;2022-10-24T04:03:13;3.03;;;2.50;;
55067;SDS011;40965;52.368;9.712;2022-10-24T04:06:00;8.23;;;3.17;;
55067;SDS011;40965;52.368;9.712;2022-10-24T04:08:46;6.43;;;3.00;;
55067;SDS011;40965;52.368;9.712;2022-10-24T04:11:33;6.07;;;2.63;;
55067;SDS011;40965;52.368;9.712;2022-10-24T04:14:20;3.28;;;3.00;;
55067;SDS011;40965;52.368;9.712;2022-10-24T04:17:07;5.18;;;3.00;;
55067;SDS011;40965;52.368;9.712;2022-10-24T04:19:54;3.97;;;2.35;;
55067;SDS011;40965;52.368;9.712;2022-10-24T04:22:41;4.18;;;2.42;;
55067;SDS011;40965;52.368;9.712;2022-10-24T04:25:28;7.88;;;3.15;;
55067;SDS011;40965;52.368;9.712;2022-10-24T04:28:14;7.82;;;3.13;;
55067;SDS011;40965;52.368;9.712;2022-10-24T04:31:01;9.57;;;3.85;;
55067;SDS011;40965;52.368;9.712;2022-10-24T04:33:48;6.40;;;3.17;;
55067;SDS011;40965;52.368;9.712;2022-10-24T04:36:35;7.63;;;3.45;;
55067;SDS011;40965;52.368;9.712;2022-10-24T04:39:22;10.25;;;3.60;;
55067;SDS011;40965;52.368;9.712;2022-10-24T04:42:09;7.32;;;3.25;;
55067;SDS011;40965;52.368;9.712;2022-10-24T04:44:55;11.02;;;3.88;;
55067;SDS011;40965;52.368;9.712;2022-10-24T04:47:42;5.15;;;3.22;;
55067;SDS011;40965;52.368;9.712;2022-10-24T04:50:29;11.25;;;3.80;;
55067;SDS011;40965;52.368;9.712;2022-10-24T04:53:19;13.20;;;3.40;;
55067;SDS011;40965;52.368;9.712;2022-10-24T04:56:09;4.18;;;3.78;;
55067;SDS011;40965;52.368;9.712;2022-10-24T04:58:55;9.15;;;4.78;;
55067;SDS011;40965;52.368;9.712;2022-10-24T05:01:42;12.18;;;4.22;;
55067;SDS011;40965;52.368;9.712;2022-10-24T05:04:29;5.82;;;3.17;;
55067;SDS011;40965;52.368;9.712;2022-10-24T05:07:16;7.40;;;3.30;;
55067;SDS011;40965;52.368;9.712;2022-10-24T05:10:05;6.40;;;2.83;;
55067;SDS011;40965;52.368;9.712;2022-10-24T05:12:52;8.23;;;3.20;;
55067;SDS011;40965;52.368;9.712;2022-10-24T05:15:39;8.20;;;3.45;;
55067;SDS011;40965;52.368;9.712;2022-10-24T05:18:25;7.03;;;2.90;;
55067;SDS011;40965;52.368;9.712;2022-10-24T05:21:12;8.45;;;3.30;;
55067;SDS011;40965;52.368;9.712;2022-10-24T05:23:59;5.00;;;2.58;;
55067;SDS011;40965;52.368;9.712;2022-10-24T05:26:46;6.72;;;3.20;;
55067;SDS011;40965;52.368;9.712;2022-10-24T05:29:33;6.65;;;3.38;;
55067;SDS011;40965;52.368;9.712;2022-10-24T05:32:21;5.68;;;3.08;;
55067;SDS011;40965;52.368;9.712;2022-10-24T05:35:09;5.07;;;2.88;;
55067;SDS011;40965;52.368;9.712;2022-10-24T05:37:56;8.18;;;3.97;;
55067;SDS011;40965;52.368;9.712;2022-10-24T05:40:43;5.63;;;3.13;;
55067;SDS011;40965;52.368;9.712;2022-10-24T05:43:31;4.13;;;2.90;;
55067;SDS011;40965;52.368;9.712;2022-10-24T05:46:18;13.38;;;3.67;;
55067;SDS011;40965;52.368;9.712;2022-10-24T05:49:05;4.70;;;3.22;;
55067;SDS011;40965;52.368;9.712;2022-10-24T05:51:52;8.18;;;3.85;;
55067;SDS011;40965;52.368;9.712;2022-10-24T05:54:39;8.07;;;3.25;;
55067;SDS011;40965;52.368;9.712;2022-10-24T05:57:26;6.50;;;2.95;;
55067;SDS011;40965;52.368;9.712;2022-10-24T06:00:15;9.70;;;4.15;;
55067;SDS011;40965;52.368;9.712;2022-10-24T06:03:03;3.92;;;3.15;;
55067;SDS011;40965;52.368;9.712;2022-10-24T06:05:52;6.88;;;3.50;;
55067;SDS011;40965;52.368;9.712;2022-10-24T06:08:38;10.73;;;3.63;;
55067;SDS011;40965;52.368;9.712;2022-10-24T06:11:25;4.85;;;3.15;;
55067;SDS011;40965;52.368;9.712;2022-10-24T06:14:12;9.45;;;3.60;;
55067;SDS011;40965;52.368;9.712;2022-10-24T06:17:01;9.23;;;3.15;;
55067;SDS011;40965;52.368;9.712;2022-10-24T06:19:49;9.75;;;3.40;;
55067;SDS011;40965;52.368;9.712;2022-10-24T06:22:36;7.10;;;3.58;;
55067;SDS011;40965;52.368;9.712;2022-10-24T06:25:23;9.32;;;2.88;;
55067;SDS011;40965;52.368;9.712;2022-10-24T06:28:10;8.70;;;3.58;;
55067;SDS011;40965;52.368;9.712;2022-10-24T06:30:59;5.70;;;3.42;;
55067;SDS011;40965;52.368;9.712;2022-10-24T06:33:47;6.03;;;2.75;;
55067;SDS011;40965;52.368;9.712;2022-10-24T06:36:34;9.93;;;2.50;;
55067;SDS011;40965;52.368;9.712;2022-10-24T06:39:21;7.43;;;2.38;;
55067;SDS011;40965;52.368;9.712;2022-10-24T06:42:08;8.15;;;3.03;;
55067;SDS011;40965;52.368;9.712;2022-10-24T06:44:55;5.32;;;3.05;;
55067;SDS011;40965;52.368;9.712;2022-10-24T06:47:42;7.72;;;2.97;;
55067;SDS011;40965;52.368;9.712;2022-10-24T06:50:28;6.03;;;3.53;;
55067;SDS011;40965;52.368;9.712;2022-10-24T06:53:15;4.30;;;2.70;;
55067;SDS011;40965;52.368;9.712;2022-10-24T06:56:03;5.53;;;2.67;;
55067;SDS011;40965;52.368;9.712;2022-10-24T06:58:51;8.82;;;2.65;;
55067;SDS011;40965;52.368;9.712;2022-10-24T07:01:38;8.05;;;3.33;;
55067;SDS011;40965;52.368;9.712;2022-10-24T07:04:25;6.45;;;3.30;;
55067;SDS011;40965;52.368;9.712;2022-10-24T07:07:15;6.80;;;2.80;;
55067;SDS011;40965;52.368;9.712;2022-10-24T07:10:05;4.60;;;2.45;;
55067;SDS011;40965;52.368;9.712;2022-10-24T07:12:52;8.35;;;2.80;;
55067;SDS011;40965;52.368;9.712;2022-10-24T07:15:39;7.93;;;3.28;;
55067;SDS011;40965;52.368;9.712;2022-10-24T07:18:26;5.63;;;2.83;;
55067;SDS011;40965;52.368;9.712;2022-10-24T07:21:13;6.57;;;2.28;;
55067;SDS011;40965;52.368;9.712;2022-10-24T07:24:05;5.10;;;3.22;;
55067;SDS011;40965;52.368;9.712;2022-10-24T07:26:53;5.25;;;1.98;;
55067;SDS011;40965;52.368;9.712;2022-10-24T07:29:39;8.90;;;3.05;;
55067;SDS011;40965;52.368;9.712;2022-10-24T07:32:26;6.88;;;2.88;;
55067;SDS011;40965;52.368;9.712;2022-10-24T07:35:13;8.20;;;2.72;;
55067;SDS011;40965;52.368;9.712;2022-10-24T07:38:00;7.80;;;2.40;;
55067;SDS011;40965;52.368;9.712;2022-10-24T07:40:47;10.88;;;3.03;;
55067;SDS011;40965;52.368;9.712;2022-10-24T07:43:34;6.30;;;2.67;;
55067;SDS011;40965;52.368;9.712;2022-10-24T07:46:21;5.93;;;2.22;;
55067;SDS011;40965;52.368;9.712;2022-10-24T07:49:08;4.55;;;2.40;;
55067;SDS011;40965;52.368;9.712;2022-10-24T07:51:55;4.20;;;2.10;;
55067;SDS011;40965;52.368;9.712;2022-10-24T07:54:42;5.90;;;2.25;;
55067;SDS011;40965;52.368;9.712;2022-10-24T07:57:29;8.95;;;1.75;;
55067;SDS011;40965;52.368;9.712;2022-10-24T08:00:16;6.65;;;2.50;;
55067;SDS011;40965;52.368;9.712;2022-10-24T08:03:03;7.53;;;2.42;;
55067;SDS011;40965;52.368;9.712;2022-10-24T08:05:49;6.47;;;2.10;;
55067;SDS011;40965;52.368;9.712;2022-10-24T08:08:41;5.40;;;1.80;;
55067;SDS011;40965;52.368;9.712;2022-10-24T08:11:28;9.52;;;2.72;;
55067;SDS011;40965;52.368;9.712;2022-10-24T08:14:16;7.07;;;2.80;;
55067;SDS011;40965;52.368;9.712;2022-10-24T08:17:03;6.97;;;2.15;;
55067;SDS011;40965;52.368;9.712;2022-10-24T08:19:50;2.15;;;1.40;;
55067;SDS011;40965;52.368;9.712;2022-10-24T08:22:38;8.32;;;2.95;;
55067;SDS011;40965;52.368;9.712;2022-10-24T08:25:25;11.90;;;2.00;;
55067;SDS011;40965;52.368;9.712;2022-10-24T08:28:12;2.97;;;1.75;;
55067;SDS011;40965;52.368;9.712;2022-10-24T08:31:01;6.20;;;1.95;;
55067;SDS011;40965;52.368;9.712;2022-10-24T08:33:55;6.18;;;2.33;;
55067;SDS011;40965;52.368;9.712;2022-10-24T08:36:42;5.97;;;2.65;;
55067;SDS011;40965;52.368;9.712;2022-10-24T08:39:29;10.13;;;2.30;;
55067;SDS011;40965;52.368;9.712;2022-10-24T08:42:15;6.18;;;2.13;;
55067;SDS011;40965;52.368;9.712;2022-10-24T08:45:08;4.53;;;1.60;;
55067;SDS011;40965;52.368;9.712;2022-10-24T08:48:00;5.10;;;2.92;;
55067;SDS011;40965;52.368;9.712;2022-10-24T08:51:01;2.05;;;1.85;;
55067;SDS011;40965;52.368;9.712;2022-10-24T08:54:22;6.43;;;2.63;;
55067;SDS011;40965;52.368;9.712;2022-10-24T08:57:25;6.40;;;2.38;;
55067;SDS011;40965;52.368;9.712;2022-10-24T09:00:19;9.52;;;2.83;;
55067;SDS011;40965;52.368;9.712;2022-10-24T09:06:29;6.68;;;2.00;;
55067;SDS011;40965;52.368;9.712;2022-10-24T09:09:19;4.78;;;1.95;;
55067;SDS011;40965;52.368;9.712;2022-10-24T09:12:12;8.55;;;1.40;;
55067;SDS011;40965;52.368;9.712;2022-10-24T09:15:03;3.88;;;1.58;;
55067;SDS011;40965;52.368;9.712;2022-10-24T09:18:02;6.55;;;1.83;;
55067;SDS011;40965;52.368;9.712;2022-10-24T09:20:49;2.75;;;1.50;;
55067;SDS011;40965;52.368;9.712;2022-10-24T09:23:38;4.88;;;1.60;;
55067;SDS011;40965;52.368;9.712;2022-10-24T09:26:26;3.67;;;1.58;;
55067;SDS011;40965;52.368;9.712;2022-10-24T09:29:16;4.93;;;2.08;;
55067;SDS011;40965;52.368;9.712;2022-10-24T09:32:03;4.25;;;2.00;;
55067;SDS011;40965;52.368;9.712;2022-10-24T09:34:49;6.03;;;2.17;;
55067;SDS011;40965;52.368;9.712;2022-10-24T09:40:34;6.00;;;2.08;;
55067;SDS011;40965;52.368;9.712;2022-10-24T09:43:34;4.75;;;2.08;;
55067;SDS011;40965;52.368;9.712;2022-10-24T09:46:35;7.63;;;1.65;;
55067;SDS011;40965;52.368;9.712;2022-10-24T09:49:36;5.13;;;2.08;;
55067;SDS011;40965;52.368;9.712;2022-10-24T09:52:26;13.90;;;2.80;;
55067;SDS011;40965;52.368;9.712;2022-10-24T09:58:12;6.85;;;2.30;;
55067;SDS011;40965;52.368;9.712;2022-10-24T10:04:02;8.98;;;1.88;;
55067;SDS011;40965;52.368;9.712;2022-10-24T10:06:51;4.45;;;1.85;;
55067;SDS011;40965;52.368;9.712;2022-10-24T10:09:38;2.97;;;1.65;;
55067;SDS011;40965;52.368;9.712;2022-10-24T10:12:39;12.63;;;2.17;;
55067;SDS011;40965;52.368;9.712;2022-10-24T10:15:32;4.63;;;1.58;;
55067;SDS011;40965;52.368;9.712;2022-10-24T10:21:22;4.60;;;1.40;;
55067;SDS011;40965;52.368;9.712;2022-10-24T10:24:22;5.50;;;2.00;;
55067;SDS011;40965;52.368;9.712;2022-10-24T10:30:21;4.13;;;1.42;;
55067;SDS011;40965;52.368;9.712;2022-10-24T10:36:15;4.72;;;1.45;;
55067;SDS011;40965;52.368;9.712;2022-10-24T10:42:26;9.02;;;1.90;;
55067;SDS011;40965;52.368;9.712;2022-10-24T10:51:47;4.63;;;1.55;;
55067;SDS011;40965;52.368;9.712;2022-10-24T10:54:44;6.75;;;1.38;;
55067;SDS011;40965;52.368;9.712;2022-10-24T10:58:18;2.05;;;1.33;;
55067;SDS011;40965;52.368;9.712;2022-10-24T11:02:12;4.13;;;1.58;;
55067;SDS011;40965;52.368;9.712;2022-10-24T11:11:26;7.88;;;1.52;;
55067;SDS011;40965;52.368;9.712;2022-10-24T11:14:26;3.22;;;0.88;;
55067;SDS011;40965;52.368;9.712;2022-10-24T11:17:21;2.70;;;1.15;;
55067;SDS011;40965;52.368;9.712;2022-10-24T11:20:15;5.28;;;1.38;;
55067;SDS011;40965;52.368;9.712;2022-10-24T11:23:28;4.45;;;1.17;;
55067;SDS011;40965;52.368;9.712;2022-10-24T11:32:52;3.63;;;0.63;;
55067;SDS011;40965;52.368;9.712;2022-10-24T11:35:52;3.63;;;1.17;;
55067;SDS011;40965;52.368;9.712;2022-10-24T11:48:59;3.28;;;0.85;;
55067;SDS011;40965;52.368;9.712;2022-10-24T11:52:09;3.88;;;0.82;;
55067;SDS011;40965;52.368;9.712;2022-10-24T11:55:13;4.75;;;0.68;;
55067;SDS011;40965;52.368;9.712;2022-10-24T11:58:07;2.75;;;0.65;;
55067;SDS011;40965;52.368;9.712;2022-10-24T12:01:06;1.45;;;0.90;;
55067;SDS011;40965;52.368;9.712;2022-10-24T12:11:00;3.10;;;0.82;;
55067;SDS011;40965;52.368;9.712;2022-10-24T12:14:07;4.20;;;0.77;;
55067;SDS011;40965;52.368;9.712;2022-10-24T12:20:16;2.40;;;0.50;;
55067;SDS011;40965;52.368;9.712;2022-10-24T12:23:15;0.80;;;0.50;;
55067;SDS011;40965;52.368;9.712;2022-10-24T12:26:16;3.55;;;0.55;;
55067;SDS011;40965;52.368;9.712;2022-10-24T12:29:06;3.45;;;0.68;;
55067;SDS011;40965;52.368;9.712;2022-10-24T12:35:33;5.22;;;0.65;;
55067;SDS011;40965;52.368;9.712;2022-10-24T12:53:19;0.95;;;0.43;;
55067;SDS011;40965;52.368;9.712;2022-10-24T12:56:23;1.33;;;0.57;;
55067;SDS011;40965;52.368;9.712;2022-10-24T12:59:20;3.65;;;0.43;;
55067;SDS011;40965;52.368;9.712;2022-10-24T13:21:32;3.75;;;0.80;;
55067;SDS011;40965;52.368;9.712;2022-10-24T13:24:36;5.00;;;1.13;;
55067;SDS011;40965;52.368;9.712;2022-10-24T13:27:26;6.25;;;0.63;;
55067;SDS011;40965;52.368;9.712;2022-10-24T13:30:23;3.80;;;0.90;;
55067;SDS011;40965;52.368;9.712;2022-10-24T13:36:15;2.78;;;0.57;;
55067;SDS011;40965;52.368;9.712;2022-10-24T13:39:09;7.82;;;0.55;;
55067;SDS011;40965;52.368;9.712;2022-10-24T13:42:03;4.22;;;1.08;;
55067;SDS011;40965;52.368;9.712;2022-10-24T13:45:19;1.25;;;0.90;;
55067;SDS011;40965;52.368;9.712;2022-10-24T13:48:29;6.65;;;0.90;;
55067;SDS011;40965;52.368;9.712;2022-10-24T13:51:22;3.58;;;0.80;;
55067;SDS011;40965;52.368;9.712;2022-10-24T13:54:21;8.70;;;1.13;;
55067;SDS011;40965;52.368;9.712;2022-10-24T13:57:22;2.30;;;0.60;;
55067;SDS011;40965;52.368;9.712;2022-10-24T14:00:25;4.22;;;0.90;;
55067;SDS011;40965;52.368;9.712;2022-10-24T14:03:16;2.90;;;0.47;;
55067;SDS011;40965;52.368;9.712;2022-10-24T14:06:06;4.85;;;0.65;;
55067;SDS011;40965;52.368;9.712;2022-10-24T14:08:54;2.85;;;0.82;;
55067;SDS011;40965;52.368;9.712;2022-10-24T14:11:45;2.42;;;0.60;;
55067;SDS011;40965;52.368;9.712;2022-10-24T14:14:37;4.40;;;0.70;;
55067;SDS011;40965;52.368;9.712;2022-10-24T14:17:26;3.25;;;0.80;;
55067;SDS011;40965;52.368;9.712;2022-10-24T14:20:19;5.97;;;0.57;;
55067;SDS011;40965;52.368;9.712;2022-10-24T14:23:35;2.17;;;0.38;;
55067;SDS011;40965;52.368;9.712;2022-10-24T14:26:27;7.25;;;0.98;;
55067;SDS011;40965;52.368;9.712;2022-10-24T14:29:24;4.80;;;0.95;;
55067;SDS011;40965;52.368;9.712;2022-10-24T14:32:16;5.82;;;0.85;;
55067;SDS011;40965;52.368;9.712;2022-10-24T14:35:03;5.70;;;1.45;;
55067;SDS011;40965;52.368;9.712;2022-10-24T14:37:50;2.45;;;0.90;;
55067;SDS011;40965;52.368;9.712;2022-10-24T14:40:37;4.93;;;1.20;;
55067;SDS011;40965;52.368;9.712;2022-10-24T14:43:25;2.25;;;0.60;;
55067;SDS011;40965;52.368;9.712;2022-10-24T14:52:11;4.72;;;0.60;;
55067;SDS011;40965;52.368;9.712;2022-10-24T14:55:17;1.85;;;0.82;;
55067;SDS011;40965;52.368;9.712;2022-10-24T14:58:06;1.58;;;0.30;;
55067;SDS011;40965;52.368;9.712;2022-10-24T15:01:17;2.17;;;0.60;;
55067;SDS011;40965;52.368;9.712;2022-10-24T15:04:05;2.50;;;0.55;;
55067;SDS011;40965;52.368;9.712;2022-10-24T15:06:53;4.93;;;0.80;;
55067;SDS011;40965;52.368;9.712;2022-10-24T15:12:51;3.15;;;0.73;;
55067;SDS011;40965;52.368;9.712;2022-10-24T15:15:46;4.13;;;0.73;;
55067;SDS011;40965;52.368;9.712;2022-10-24T15:18:40;2.85;;;0.88;;
55067;SDS011;40965;52.368;9.712;2022-10-24T15:21:36;3.70;;;0.90;;
55067;SDS011;40965;52.368;9.712;2022-10-24T15:24:26;1.70;;;0.70;;
55067;SDS011;40965;52.368;9.712;2022-10-24T15:27:24;2.80;;;0.95;;
55067;SDS011;40965;52.368;9.712;2022-10-24T15:30:36;3.95;;;0.50;;
55067;SDS011;40965;52.368;9.712;2022-10-24T15:33:23;6.82;;;1.38;;
55067;SDS011;40965;52.368;9.712;2022-10-24T15:36:18;3.72;;;1.25;;
55067;SDS011;40965;52.368;9.712;2022-10-24T15:39:18;1.08;;;0.50;;
55067;SDS011;40965;52.368;9.712;2022-10-24T15:42:09;2.17;;;0.70;;
55067;SDS011;40965;52.368;9.712;2022-10-24T15:44:56;3.67;;;0.77;;
55067;SDS011;40965;52.368;9.712;2022-10-24T15:47:43;5.05;;;0.70;;
55067;SDS011;40965;52.368;9.712;2022-10-24T15:50:30;3.25;;;0.63;;
55067;SDS011;40965;52.368;9.712;2022-10-24T15:53:18;5.15;;;1.00;;
55067;SDS011;40965;52.368;9.712;2022-10-24T15:56:07;12.27;;;0.98;;
55067;SDS011;40965;52.368;9.712;2022-10-24T15:58:55;1.42;;;0.70;;
55067;SDS011;40965;52.368;9.712;2022-10-24T16:02:04;4.25;;;0.88;;
55067;SDS011;40965;52.368;9.712;2022-10-24T16:04:49;1.98;;;0.90;;
55067;SDS011;40965;52.368;9.712;2022-10-24T16:07:36;3.72;;;0.90;;
55067;SDS011;40965;52.368;9.712;2022-10-24T16:10:23;3.63;;;0.90;;
55067;SDS011;40965;52.368;9.712;2022-10-24T16:13:13;1.42;;;0.45;;
55067;SDS011;40965;52.368;9.712;2022-10-24T16:16:00;2.30;;;0.77;;
55067;SDS011;40965;52.368;9.712;2022-10-24T16:18:47;1.15;;;0.47;;
55067;SDS011;40965;52.368;9.712;2022-10-24T16:21:34;3.25;;;0.95;;
55067;SDS011;40965;52.368;9.712;2022-10-24T16:24:21;6.05;;;1.00;;
55067;SDS011;40965;52.368;9.712;2022-10-24T16:27:08;4.57;;;1.63;;
55067;SDS011;40965;52.368;9.712;2022-10-24T16:29:55;2.47;;;1.00;;
55067;SDS011;40965;52.368;9.712;2022-10-24T16:32:42;2.67;;;0.80;;
55067;SDS011;40965;52.368;9.712;2022-10-24T16:35:30;2.67;;;1.08;;
55067;SDS011;40965;52.368;9.712;2022-10-24T16:38:19;3.72;;;0.65;;
55067;SDS011;40965;52.368;9.712;2022-10-24T16:41:06;4.95;;;0.77;;
55067;SDS011;40965;52.368;9.712;2022-10-24T16:44:00;5.63;;;1.20;;
55067;SDS011;40965;52.368;9.712;2022-10-24T16:46:48;5.07;;;1.00;;
55067;SDS011;40965;52.368;9.712;2022-10-24T16:49:38;6.63;;;1.58;;
55067;SDS011;40965;52.368;9.712;2022-10-24T16:52:25;4.30;;;0.80;;
55067;SDS011;40965;52.368;9.712;2022-10-24T16:55:13;4.97;;;0.80;;
55067;SDS011;40965;52.368;9.712;2022-10-24T16:58:00;4.50;;;1.45;;
55067;SDS011;40965;52.368;9.712;2022-10-24T17:00:47;7.13;;;1.10;;
55067;SDS011;40965;52.368;9.712;2022-10-24T17:03:35;3.45;;;1.08;;
55067;SDS011;40965;52.368;9.712;2022-10-24T17:06:22;5.70;;;1.02;;
55067;SDS011;40965;52.368;9.712;2022-10-24T17:09:09;3.40;;;1.00;;
55067;SDS011;40965;52.368;9.712;2022-10-24T17:11:56;2.83;;;1.00;;
55067;SDS011;40965;52.368;9.712;2022-10-24T17:14:44;2.47;;;1.00;;
55067;SDS011;40965;52.368;9.712;2022-10-24T17:17:31;2.63;;;0.70;;
55067;SDS011;40965;52.368;9.712;2022-10-24T17:20:18;7.18;;;1.65;;
55067;SDS011;40965;52.368;9.712;2022-10-24T17:23:05;8.38;;;1.08;;
55067;SDS011;40965;52.368;9.712;2022-10-24T17:25:52;4.88;;;1.30;;
55067;SDS011;40965;52.368;9.712;2022-10-24T17:28:39;2.80;;;0.88;;
55067;SDS011;40965;52.368;9.712;2022-10-24T17:31:26;6.05;;;1.23;;
55067;SDS011;40965;52.368;9.712;2022-10-24T17:34:13;3.80;;;1.38;;
55067;SDS011;40965;52.368;9.712;2022-10-24T17:40:17;2.28;;;0.63;;
55067;SDS011;40965;52.368;9.712;2022-10-24T17:43:18;1.25;;;0.50;;
55067;SDS011;40965;52.368;9.712;2022-10-24T17:46:10;1.67;;;0.70;;
55067;SDS011;40965;52.368;9.712;2022-10-24T17:49:01;4.03;;;1.35;;
55067;SDS011;40965;52.368;9.712;2022-10-24T17:51:48;2.40;;;0.60;;
55067;SDS011;40965;52.368;9.712;2022-10-24T17:54:35;7.28;;;1.13;;
55067;SDS011;40965;52.368;9.712;2022-10-24T17:57:22;8.07;;;1.38;;
55067;SDS011;40965;52.368;9.712;2022-10-24T18:00:09;2.40;;;0.57;;
55067;SDS011;40965;52.368;9.712;2022-10-24T18:02:58;3.55;;;1.05;;
55067;SDS011;40965;52.368;9.712;2022-10-24T18:05:44;4.78;;;1.05;;
55067;SDS011;40965;52.368;9.712;2022-10-24T18:08:32;4.70;;;0.70;;
55067;SDS011;40965;52.368;9.712;2022-10-24T18:11:19;3.95;;;0.88;;
55067;SDS011;40965;52.368;9.712;2022-10-24T18:14:06;3.78;;;0.88;;
55067;SDS011;40965;52.368;9.712;2022-10-24T18:16:53;3.22;;;0.85;;
55067;SDS011;40965;52.368;9.712;2022-10-24T18:19:40;5.70;;;0.70;;
55067;SDS011;40965;52.368;9.712;2022-10-24T18:22:34;1.88;;;0.82;;
55067;SDS011;40965;52.368;9.712;2022-10-24T18:25:23;2.47;;;0.73;;
55067;SDS011;40965;52.368;9.712;2022-10-24T18:28:10;4.35;;;1.08;;
55067;SDS011;40965;52.368;9.712;2022-10-24T18:30:57;3.97;;;0.95;;
55067;SDS011;40965;52.368;9.712;2022-10-24T18:33:44;4.32;;;1.70;;
55067;SDS011;40965;52.368;9.712;2022-10-24T18:36:31;4.03;;;1.40;;
55067;SDS011;40965;52.368;9.712;2022-10-24T18:39:18;4.88;;;1.05;;
55067;SDS011;40965;52.368;9.712;2022-10-24T18:42:15;2.80;;;0.65;;
55067;SDS011;40965;52.368;9.712;2022-10-24T18:45:10;2.63;;;0.82;;
55067;SDS011;40965;52.368;9.712;2022-10-24T18:48:01;7.78;;;1.52;;
55067;SDS011;40965;52.368;9.712;2022-10-24T18:50:51;3.97;;;0.93;;
55067;SDS011;40965;52.368;9.712;2022-10-24T18:53:39;6.38;;;1.63;;
55067;SDS011;40965;52.368;9.712;2022-10-24T18:56:26;3.83;;;0.52;;
55067;SDS011;40965;52.368;9.712;2022-10-24T18:59:15;7.75;;;1.08;;
55067;SDS011;40965;52.368;9.712;2022-10-24T19:05:38;7.90;;;3.00;;
55067;SDS011;40965;52.368;9.712;2022-10-24T19:08:35;9.07;;;1.45;;
55067;SDS011;40965;52.368;9.712;2022-10-24T19:11:22;1.95;;;0.88;;
55067;SDS011;40965;52.368;9.712;2022-10-24T19:14:09;3.70;;;1.15;;
55067;SDS011;40965;52.368;9.712;2022-10-24T19:16:56;4.70;;;1.17;;
55067;SDS011;40965;52.368;9.712;2022-10-24T19:19:43;6.65;;;1.30;;
55067;SDS011;40965;52.368;9.712;2022-10-24T19:22:30;3.83;;;1.10;;
55067;SDS011;40965;52.368;9.712;2022-10-24T19:25:17;3.75;;;1.08;;
55067;SDS011;40965;52.368;9.712;2022-10-24T19:28:04;3.20;;;2.08;;
55067;SDS011;40965;52.368;9.712;2022-10-24T19:30:51;1.40;;;0.80;;